Time;durP1;ratioP1;P1;durP2;ratioP2;P2;SDS_P1;SDS_P2;PMS_P1;PMS_P2;Temp;Humidity;BMP_temperature;BMP_pressure;BME280_temperature;BME280_humidity;BME280_pressure;Samples;Min_cycle;Max_cycle;Signal;HPM_P1;HPM_P2
2022/08/28 00:01:06;;;;;;;4.47;2.47;;;;;;;23.19;45.58;102095.63;5075455;28;20055;-83
2022/08/28 00:03:32;;;;;;;4.40;2.92;;;;;;;23.20;45.28;102092.50;5075331;28;20021;-82
2022/08/28 00:05:59;;;;;;;4.10;2.75;;;;;;;23.29;45.16;102094.25;5075363;28;20036;-83
2022/08/28 00:08:25;;;;;;;8.10;2.80;;;;;;;23.25;45.37;102089.41;5075361;28;20028;-83
2022/08/28 00:10:51;;;;;;;6.82;2.63;;;;;;;23.35;44.83;102092.75;5090822;28;20033;-83
2022/08/28 00:13:20;;;;;;;5.05;3.00;;;;;;;23.31;45.22;102092.72;5090522;28;20060;-83
2022/08/28 00:15:49;;;;;;;6.60;2.95;;;;;;;23.29;44.89;102088.69;5090568;28;20020;-82
2022/08/28 00:18:15;;;;;;;7.10;3.00;;;;;;;23.28;45.00;102085.09;5075131;28;20024;-83
2022/08/28 00:20:42;;;;;;;10.00;4.72;;;;;;;23.16;45.42;102091.59;5073718;28;20020;-83
2022/08/28 00:23:08;;;;;;;7.40;4.15;;;;;;;23.18;45.29;102092.03;5073890;28;20095;-83
2022/08/28 00:25:34;;;;;;;7.57;4.35;;;;;;;23.17;45.52;102093.22;5074999;28;20024;-82
2022/08/28 00:28:03;;;;;;;8.48;4.45;;;;;;;23.24;45.37;102093.38;5074895;28;20035;-82
2022/08/28 00:30:35;;;;;;;9.93;4.43;;;;;;;23.39;44.84;102096.44;5074790;28;20067;-82
2022/08/28 00:33:09;;;;;;;9.15;5.00;;;;;;;23.48;44.65;102100.63;5074891;28;20090;-83
2022/08/28 00:35:35;;;;;;;8.00;5.00;;;;;;;23.40;44.73;102095.25;5073397;28;20032;-82
2022/08/28 00:38:01;;;;;;;8.52;5.13;;;;;;;23.19;45.22;102096.44;5073394;28;20051;-83
2022/08/28 00:40:29;;;;;;;9.63;5.97;;;;;;;23.24;45.02;102098.13;5090087;28;20017;-82
2022/08/28 00:42:56;;;;;;;8.80;5.72;;;;;;;23.23;45.17;102088.16;5090190;28;20039;-83
2022/08/28 00:45:23;;;;;;;10.85;6.47;;;;;;;23.26;45.03;102091.00;5090083;28;20032;-83
2022/08/28 00:47:49;;;;;;;10.85;6.55;;;;;;;23.32;44.87;102094.31;5074268;28;20081;-83
2022/08/28 00:50:18;;;;;;;12.07;7.05;;;;;;;23.32;45.32;102096.31;5074493;28;20108;-87
2022/08/28 00:52:46;;;;;;;10.27;6.68;;;;;;;23.20;45.36;102095.28;5074338;28;20383;-82
2022/08/28 00:55:18;;;;;;;8.80;6.03;;;;;;;23.11;45.83;102091.09;5074234;28;20085;-82
2022/08/28 00:57:48;;;;;;;11.00;5.15;;;;;;;23.20;45.66;102086.09;5074190;28;20029;-82
2022/08/28 01:00:36;;;;;;;8.73;5.28;;;;;;;23.14;45.73;102093.16;5074172;28;20028;-86
2022/08/28 01:03:04;;;;;;;10.27;7.35;;;;;;;23.11;45.88;102089.09;5089409;28;20028;-82
2022/08/28 01:05:31;;;;;;;12.77;8.50;;;;;;;23.13;45.89;102086.78;5090024;28;20056;-82
2022/08/28 01:07:57;;;;;;;14.30;7.97;;;;;;;23.31;45.33;102080.75;5072579;28;20021;-83
2022/08/28 01:10:27;;;;;;;14.05;8.25;;;;;;;23.24;45.37;102081.41;5072864;28;20165;-83
2022/08/28 01:12:53;;;;;;;11.47;7.23;;;;;;;23.25;45.36;102077.44;5072754;28;20478;-83
2022/08/28 01:15:24;;;;;;;13.07;7.03;;;;;;;23.19;45.52;102082.50;5089584;28;20296;-82
2022/08/28 01:17:55;;;;;;;14.35;7.35;;;;;;;23.24;45.56;102082.22;5073973;28;20028;-82
2022/08/28 01:20:31;;;;;;;13.68;8.30;;;;;;;23.17;45.67;102084.03;5072513;28;20024;-83
2022/08/28 01:23:14;;;;;;;13.45;6.50;;;;;;;23.13;45.76;102086.78;5089360;28;20504;-83
2022/08/28 01:25:40;;;;;;;6.70;5.45;;;;;;;23.10;45.84;102081.09;5072390;28;20123;-82
2022/08/28 01:28:11;;;;;;;9.30;6.18;;;;;;;23.06;46.10;102078.25;5073586;28;20028;-83
2022/08/28 01:30:39;;;;;;;9.57;6.80;;;;;;;23.13;45.70;102085.97;5089463;28;20475;-83
2022/08/28 01:33:05;;;;;;;12.98;8.13;;;;;;;23.25;45.64;102085.81;5089207;28;20024;-82
2022/08/28 01:35:34;;;;;;;10.40;6.90;;;;;;;23.15;46.12;102078.03;5073393;28;20032;-82
2022/08/28 01:38:00;;;;;;;9.88;5.90;;;;;;;23.17;45.83;102084.03;5089168;28;20115;-87
2022/08/28 01:40:30;;;;;;;14.35;6.15;;;;;;;23.15;45.81;102084.41;5073422;28;20036;-82
2022/08/28 01:43:06;;;;;;;8.45;5.70;;;;;;;23.10;45.73;102084.69;5088974;28;20021;-83
2022/08/28 01:45:32;;;;;;;11.75;6.72;;;;;;;23.08;46.02;102089.84;5089055;28;20074;-82
2022/08/28 01:47:58;;;;;;;11.65;6.13;;;;;;;23.08;46.09;102084.25;5073324;28;20074;-83
2022/08/28 01:50:23;;;;;;;10.98;5.90;;;;;;;23.07;45.88;102088.22;5073338;28;20490;-83
2022/08/28 01:52:49;;;;;;;12.27;5.57;;;;;;;23.09;46.00;102082.28;5071639;28;20029;-82
2022/08/28 01:55:14;;;;;;;7.32;5.15;;;;;;;23.08;46.02;102073.13;5071479;28;20578;-83
2022/08/28 01:57:43;;;;;;;11.05;7.28;;;;;;;23.09;45.91;102076.72;5071973;28;20071;-82
2022/08/28 02:00:09;;;;;;;9.27;5.18;;;;;;;23.07;46.01;102074.28;5072194;28;20020;-82
2022/08/28 02:02:35;;;;;;;13.70;7.18;;;;;;;23.04;46.04;102077.78;5088659;28;20102;-82
2022/08/28 02:05:01;;;;;;;10.27;7.47;;;;;;;23.02;46.28;102071.78;5073017;28;20102;-82
2022/08/28 02:07:26;;;;;;;26.85;18.20;;;;;;;22.97;46.06;102072.91;5071793;28;20519;-83
2022/08/28 02:09:52;;;;;;;20.20;15.02;;;;;;;22.93;46.57;102074.78;5088625;28;20033;-83
2022/08/28 02:12:19;;;;;;;30.85;21.63;;;;;;;22.91;46.34;102073.56;5073082;28;20025;-83
2022/08/28 02:14:45;;;;;;;28.90;18.27;;;;;;;22.90;46.55;102072.75;5088197;28;20456;-82
2022/08/28 02:17:10;;;;;;;32.53;23.38;;;;;;;22.90;46.59;102072.75;5072939;28;20112;-83
2022/08/28 02:19:36;;;;;;;26.40;18.60;;;;;;;22.87;46.70;102078.22;5072371;28;20024;-83
2022/08/28 02:22:06;;;;;;;29.67;22.50;;;;;;;22.83;46.66;102069.78;5072954;28;20064;-83
2022/08/28 02:24:33;;;;;;;41.38;30.30;;;;;;;22.86;46.77;102071.03;5072864;28;20020;-83
2022/08/28 02:27:01;;;;;;;47.65;37.67;;;;;;;22.91;46.63;102066.00;5072701;28;20032;-83
2022/08/28 02:29:27;;;;;;;50.72;38.17;;;;;;;22.92;46.43;102073.19;5072710;28;20021;-83
2022/08/28 02:31:52;;;;;;;49.05;35.13;;;;;;;22.91;46.46;102070.78;5072943;28;20094;-83
2022/08/28 02:34:18;;;;;;;42.70;35.03;;;;;;;23.11;45.82;102066.00;5088236;28;20028;-83
2022/08/28 02:36:43;;;;;;;62.03;41.95;;;;;;;23.14;45.89;102068.88;5072788;28;20074;-83
2022/08/28 02:39:10;;;;;;;50.95;39.28;;;;;;;23.21;45.59;102071.81;5072613;28;20017;-83
2022/08/28 02:41:36;;;;;;;51.88;38.00;;;;;;;23.18;45.84;102066.94;5072631;28;20029;-82
2022/08/28 02:44:02;;;;;;;49.50;36.83;;;;;;;23.15;46.07;102073.28;5088177;28;20448;-82
2022/08/28 02:46:28;;;;;;;36.75;27.88;;;;;;;23.11;45.95;102072.38;5072759;28;20099;-83
2022/08/28 02:48:55;;;;;;;34.55;25.77;;;;;;;23.11;46.37;102074.34;5088174;28;20116;-82
2022/08/28 02:51:21;;;;;;;38.80;30.98;;;;;;;22.96;46.44;102076.03;5088225;28;20039;-82
2022/08/28 02:53:48;;;;;;;37.22;27.27;;;;;;;22.88;46.88;102086.22;5072564;28;20028;-83
2022/08/28 02:56:14;;;;;;;34.05;23.63;;;;;;;22.85;46.70;102074.97;5087983;28;20113;-82
2022/08/28 02:58:39;;;;;;;31.88;23.17;;;;;;;22.88;46.70;102065.91;5072624;28;20071;-83
2022/08/28 03:01:08;;;;;;;33.67;25.63;;;;;;;22.86;47.01;102073.84;5072623;28;20032;-83
2022/08/28 03:03:34;;;;;;;34.87;25.27;;;;;;;22.91;46.92;102077.16;5071192;28;20024;-83
2022/08/28 03:06:01;;;;;;;33.10;25.00;;;;;;;22.94;46.66;102081.19;5071079;28;20268;-83
2022/08/28 03:08:27;;;;;;;33.10;24.65;;;;;;;22.95;46.84;102077.22;5072368;28;20024;-82
2022/08/28 03:10:52;;;;;;;25.73;17.50;;;;;;;23.00;46.79;102074.16;5072385;28;20021;-83
2022/08/28 03:13:18;;;;;;;18.02;14.98;;;;;;;22.98;46.57;102068.13;5072198;28;20110;-83
2022/08/28 03:15:45;;;;;;;16.58;12.23;;;;;;;22.97;46.60;102072.06;5092643;28;20032;-83
2022/08/28 03:18:13;;;;;;;17.98;11.32;;;;;;;22.97;46.68;102064.53;5072281;28;20025;-82
2022/08/28 03:20:40;;;;;;;13.55;11.07;;;;;;;22.98;46.96;102060.56;5072228;28;20028;-82
2022/08/28 03:23:25;;;;;;;17.98;13.60;;;;;;;22.97;47.01;102066.50;5070901;28;20066;-83
2022/08/28 03:25:52;;;;;;;20.50;14.90;;;;;;;22.97;46.71;102058.13;5070995;28;20043;-83
2022/08/28 03:28:18;;;;;;;23.48;17.17;;;;;;;22.99;46.66;102064.16;5071002;28;20031;-82
2022/08/28 03:30:44;;;;;;;22.33;16.90;;;;;;;22.95;46.82;102066.06;5091135;28;20368;-82
2022/08/28 03:33:10;;;;;;;18.05;13.23;;;;;;;22.96;46.84;102067.66;5075868;28;20025;-82
2022/08/28 03:35:36;;;;;;;15.57;11.15;;;;;;;22.94;47.08;102064.44;5075860;28;20035;-83
2022/08/28 03:38:03;;;;;;;16.83;12.07;;;;;;;22.90;46.99;102066.38;5075801;28;20103;-82
2022/08/28 03:40:29;;;;;;;17.35;11.18;;;;;;;22.86;47.02;102063.50;5076127;28;20020;-83
2022/08/28 03:42:55;;;;;;;12.90;10.27;;;;;;;22.82;47.22;102061.75;5075905;28;20078;-83
2022/08/28 03:45:21;;;;;;;11.55;8.80;;;;;;;22.89;47.04;102061.94;5075686;28;20021;-82
2022/08/28 03:47:47;;;;;;;17.30;11.32;;;;;;;22.93;46.82;102069.22;5075842;28;20374;-82
2022/08/28 03:50:16;;;;;;;14.90;10.32;;;;;;;22.93;46.88;102066.44;5091369;28;20024;-87
2022/08/28 03:52:42;;;;;;;15.73;9.30;;;;;;;22.93;46.86;102060.06;5075582;28;20070;-83
2022/08/28 03:55:09;;;;;;;12.80;7.55;;;;;;;22.83;47.11;102060.59;5091036;28;20025;-82
2022/08/28 03:57:36;;;;;;;14.55;7.72;;;;;;;22.78;47.16;102055.31;5091141;28;20472;-82
2022/08/28 04:00:05;;;;;;;11.35;8.13;;;;;;;22.84;47.29;102053.88;5075479;28;20104;-83
2022/08/28 04:02:30;;;;;;;9.07;7.47;;;;;;;22.78;47.38;102058.09;5075399;28;20024;-83
2022/08/28 04:04:56;;;;;;;10.98;8.75;;;;;;;22.80;47.42;102059.34;5075440;28;20036;-82
2022/08/28 04:07:21;;;;;;;12.88;8.65;;;;;;;22.74;47.34;102060.00;5091011;28;20388;-83
2022/08/28 04:09:47;;;;;;;10.25;8.05;;;;;;;22.77;47.18;102068.44;5074055;28;20028;-82
2022/08/28 04:12:14;;;;;;;17.00;8.98;;;;;;;22.77;47.21;102068.44;5075318;28;20036;-83
2022/08/28 04:14:40;;;;;;;14.98;8.32;;;;;;;22.80;47.30;102066.91;5075053;28;20506;-82
2022/08/28 04:17:05;;;;;;;12.43;7.95;;;;;;;22.74;47.30;102069.16;5090518;28;20036;-83
2022/08/28 04:19:32;;;;;;;10.98;7.80;;;;;;;22.69;47.26;102061.91;5074978;28;20479;-82
2022/08/28 04:21:58;;;;;;;11.55;7.05;;;;;;;22.62;47.59;102064.53;5073729;28;20182;-82
2022/08/28 04:24:24;;;;;;;8.80;6.20;;;;;;;22.64;47.72;102067.75;5074076;28;20415;-83
2022/08/28 04:26:50;;;;;;;9.07;6.78;;;;;;;22.66;47.84;102061.81;5074858;28;20031;-83
2022/08/28 04:29:15;;;;;;;10.88;5.82;;;;;;;22.65;47.78;102069.34;5089662;28;20040;-83
2022/08/28 04:31:41;;;;;;;8.40;5.75;;;;;;;22.67;47.65;102060.63;5074553;28;20032;-83
2022/08/28 04:34:09;;;;;;;10.55;5.40;;;;;;;22.72;47.62;102065.94;5074857;28;20089;-82
2022/08/28 04:36:35;;;;;;;10.50;6.40;;;;;;;22.66;48.02;102064.59;5074690;28;20032;-82
2022/08/28 04:39:04;;;;;;;12.85;6.07;;;;;;;22.64;47.71;102067.75;5090408;28;20070;-83
2022/08/28 04:41:30;;;;;;;7.72;6.03;;;;;;;22.60;47.79;102064.09;5074364;28;20107;-82
2022/08/28 04:43:57;;;;;;;9.75;5.80;;;;;;;22.59;47.80;102059.66;5074532;28;20032;-83
2022/08/28 04:46:23;;;;;;;6.07;4.07;;;;;;;22.60;48.32;102055.72;5074431;28;20029;-81
2022/08/28 04:48:49;;;;;;;5.80;4.07;;;;;;;22.68;48.33;102065.06;5073346;28;20054;-82
2022/08/28 04:51:15;;;;;;;5.95;3.65;;;;;;;22.71;48.47;102056.78;5090113;28;20040;-82
2022/08/28 04:53:41;;;;;;;6.55;4.13;;;;;;;22.82;48.60;102058.97;5089900;28;20028;-82
2022/08/28 04:56:11;;;;;;;8.30;4.35;;;;;;;22.82;48.69;102056.19;5072932;28;20031;-83
2022/08/28 04:58:38;;;;;;;8.13;4.60;;;;;;;22.89;48.47;102053.59;5090026;28;20036;-83
2022/08/28 05:01:07;;;;;;;9.32;4.40;;;;;;;22.92;48.09;102052.88;5073253;28;20028;-82
2022/08/28 05:03:33;;;;;;;7.07;2.97;;;;;;;22.94;48.48;102064.44;5089806;28;20035;-83
2022/08/28 05:05:59;;;;;;;7.32;3.60;;;;;;;22.84;48.84;102053.88;5074251;28;20020;-83
2022/08/28 05:08:27;;;;;;;6.60;3.25;;;;;;;22.85;49.30;102052.69;5089812;28;20090;-82
2022/08/28 05:10:53;;;;;;;5.25;2.75;;;;;;;22.90;49.04;102069.97;5074474;28;20056;-82
2022/08/28 05:13:20;;;;;;;3.75;2.33;;;;;;;23.00;49.07;102064.97;5073828;28;20041;-82
2022/08/28 05:15:48;;;;;;;5.15;2.85;;;;;;;23.14;48.74;102066.09;5073949;28;20078;-81
2022/08/28 05:18:16;;;;;;;4.15;2.08;;;;;;;23.04;49.17;102063.84;5072814;28;20031;-82
2022/08/28 05:20:45;;;;;;;4.25;2.03;;;;;;;23.08;48.72;102069.53;5089581;28;20046;-83
2022/08/28 05:23:12;;;;;;;4.23;2.00;;;;;;;23.01;49.26;102072.97;5073919;28;20020;-83
2022/08/28 05:25:41;;;;;;;3.50;1.98;;;;;;;23.08;49.02;102066.75;5073645;28;20071;-82
2022/08/28 05:28:09;;;;;;;3.95;1.85;;;;;;;23.16;48.46;102074.88;5073718;28;20025;-83
2022/08/28 05:30:36;;;;;;;5.40;2.10;;;;;;;23.23;48.86;102074.22;5073777;28;20039;-86
2022/08/28 05:33:03;;;;;;;3.53;1.60;;;;;;;23.01;49.19;102074.94;5089348;28;20497;-82
2022/08/28 05:35:32;;;;;;;3.50;2.10;;;;;;;22.91;49.00;102077.16;5072193;28;20542;-83
2022/08/28 05:37:58;;;;;;;5.35;2.15;;;;;;;22.98;49.08;102082.88;5072290;28;20478;-82
2022/08/28 05:40:23;;;;;;;5.97;2.50;;;;;;;22.98;48.64;102079.28;5072117;28;20067;-82
2022/08/28 05:42:50;;;;;;;3.75;2.13;;;;;;;23.01;48.97;102088.88;5089038;28;20032;-82
2022/08/28 05:45:15;;;;;;;2.17;1.58;;;;;;;23.01;48.78;102078.53;5072061;28;20035;-83
2022/08/28 05:47:42;;;;;;;5.53;2.05;;;;;;;23.05;48.82;102084.19;5089100;28;20024;-83
2022/08/28 05:50:09;;;;;;;2.45;1.40;;;;;;;23.16;48.18;102086.03;5073323;28;20021;-82
2022/08/28 05:52:35;;;;;;;2.92;1.50;;;;;;;23.14;48.60;102088.38;5071224;28;20021;-83
2022/08/28 05:55:01;;;;;;;4.63;1.73;;;;;;;23.13;48.51;102092.34;5073227;28;20035;-83
2022/08/28 05:57:28;;;;;;;3.67;1.80;;;;;;;23.20;48.41;102095.28;5088863;28;20039;-83
2022/08/28 05:59:53;;;;;;;2.67;1.35;;;;;;;23.31;48.39;102103.06;5071969;28;20056;-82
2022/08/28 06:02:19;;;;;;;2.47;1.33;;;;;;;23.33;48.10;102101.50;5088452;28;20556;-83
2022/08/28 06:04:46;;;;;;;3.42;1.52;;;;;;;23.40;48.10;102107.22;5073121;28;20032;-83
2022/08/28 06:07:14;;;;;;;2.75;1.42;;;;;;;23.40;48.14;102112.81;5073113;28;20506;-83
2022/08/28 06:09:40;;;;;;;3.28;1.40;;;;;;;23.32;48.29;102107.47;5071780;28;20479;-87
2022/08/28 06:12:06;;;;;;;2.45;1.40;;;;;;;23.36;48.16;102111.13;5072991;28;20106;-83
2022/08/28 06:14:31;;;;;;;6.82;2.38;;;;;;;23.40;47.99;102118.38;5088163;28;20099;-82
2022/08/28 06:16:57;;;;;;;4.47;2.38;;;;;;;23.45;47.68;102120.09;5072992;28;20526;-82
2022/08/28 06:19:25;;;;;;;2.95;1.65;;;;;;;23.46;47.74;102116.13;5072922;28;20028;-82
2022/08/28 06:21:56;;;;;;;3.30;1.80;;;;;;;23.49;47.67;102115.38;5072818;28;20491;-83
2022/08/28 06:24:22;;;;;;;4.70;2.53;;;;;;;23.47;47.95;102114.94;5088467;28;20162;-83
2022/08/28 06:26:48;;;;;;;3.55;1.50;;;;;;;23.52;47.35;102114.66;5072674;28;20028;-83
2022/08/28 06:29:16;;;;;;;3.45;1.40;;;;;;;23.51;47.40;102118.63;5088198;28;20078;-83
2022/08/28 06:31:41;;;;;;;3.28;1.42;;;;;;;23.53;47.31;102122.66;5072108;28;20523;-83
2022/08/28 06:34:08;;;;;;;4.85;1.40;;;;;;;23.49;47.69;102121.75;5086766;28;20021;-82
2022/08/28 06:36:37;;;;;;;4.07;1.65;;;;;;;23.51;47.41;102122.22;5070933;28;20024;-82
2022/08/28 06:39:04;;;;;;;2.53;1.50;;;;;;;23.62;47.33;102124.44;5072575;28;20035;-83
2022/08/28 06:41:31;;;;;;;2.20;1.60;;;;;;;23.59;47.28;102127.94;5071305;28;20044;-82
2022/08/28 06:43:57;;;;;;;2.92;1.27;;;;;;;23.53;47.67;102127.41;5088319;28;20025;-83
2022/08/28 06:46:25;;;;;;;2.63;1.52;;;;;;;23.41;47.91;102125.56;5088235;28;20089;-83
2022/08/28 06:48:51;;;;;;;3.70;1.38;;;;;;;23.47;47.83;102126.09;5072432;28;20083;-83
2022/08/28 06:51:18;;;;;;;3.00;1.30;;;;;;;23.44;47.90;102127.66;5072557;28;20119;-82
2022/08/28 06:53:45;;;;;;;2.35;1.50;;;;;;;23.43;48.78;102128.81;5088065;28;20028;-83
2022/08/28 06:56:16;;;;;;;1.83;1.50;;;;;;;23.44;48.10;102129.63;5072417;28;20112;-83
2022/08/28 06:58:43;;;;;;;2.70;1.20;;;;;;;23.30;48.83;102129.34;5088286;28;20036;-82
2022/08/28 07:01:16;;;;;;;2.00;1.38;;;;;;;23.41;48.62;102136.72;5072363;28;20379;-83
2022/08/28 07:03:43;;;;;;;3.13;1.50;;;;;;;23.51;48.36;102135.34;5071214;28;20036;-82
2022/08/28 07:06:10;;;;;;;2.92;1.67;;;;;;;23.55;48.34;102139.00;5075041;28;20028;-83
2022/08/28 07:08:36;;;;;;;7.32;1.92;;;;;;;23.56;48.08;102137.03;5076365;28;20079;-83
2022/08/28 07:11:20;;;;;;;5.40;1.80;;;;;;;23.50;48.92;102136.50;5091935;28;20024;-83
2022/08/28 07:13:47;;;;;;;4.93;1.80;;;;;;;23.44;49.05;102140.78;5076215;28;20044;-82
2022/08/28 07:16:16;;;;;;;2.72;1.40;;;;;;;23.48;48.78;102144.44;5076168;28;20028;-82
2022/08/28 07:18:42;;;;;;;3.60;1.58;;;;;;;23.55;48.75;102141.78;5076331;28;20436;-82
2022/08/28 07:21:09;;;;;;;3.42;1.00;;;;;;;23.59;48.42;102147.47;5076068;28;20526;-83
2022/08/28 07:23:36;;;;;;;6.07;1.60;;;;;;;23.67;48.50;102144.47;5076136;28;20119;-83
2022/08/28 07:26:09;;;;;;;3.33;1.65;;;;;;;23.71;48.79;102147.31;5091731;28;20024;-83
2022/08/28 07:28:35;;;;;;;2.78;1.58;;;;;;;23.73;48.76;102145.78;5076084;28;20102;-82
2022/08/28 07:31:11;;;;;;;2.28;1.25;;;;;;;23.68;48.76;102154.44;5091561;28;20056;-83
2022/08/28 07:33:38;;;;;;;4.63;1.50;;;;;;;23.69;48.89;102152.47;5091548;28;20035;-82
2022/08/28 07:36:08;;;;;;;2.80;1.33;;;;;;;23.68;48.64;102148.88;5075695;28;20110;-83
2022/08/28 07:38:34;;;;;;;3.35;1.50;;;;;;;23.71;48.77;102150.91;5076080;28;20493;-82
2022/08/28 07:41:01;;;;;;;4.13;1.90;;;;;;;23.72;48.74;102158.09;5075858;28;20024;-82
2022/08/28 07:46:11;;;;;;;3.05;1.90;;;;;;;23.78;48.90;102165.00;5076027;28;20035;-84
2022/08/28 07:48:39;;;;;;;8.48;1.75;;;;;;;23.72;49.50;102168.47;5075920;28;20033;-82
2022/08/28 07:51:07;;;;;;;5.75;1.90;;;;;;;23.73;49.36;102172.88;5074380;28;20029;-82
2022/08/28 07:53:33;;;;;;;5.72;1.60;;;;;;;23.82;49.40;102173.47;5074160;28;20021;-83
2022/08/28 07:55:58;;;;;;;3.95;1.88;;;;;;;23.82;49.36;102175.44;5074170;28;20110;-82
2022/08/28 07:58:25;;;;;;;3.28;1.75;;;;;;;23.87;49.42;102166.75;5075921;28;20052;-83
2022/08/28 08:00:51;;;;;;;3.22;1.45;;;;;;;23.93;49.31;102168.06;5074191;28;20055;-83
2022/08/28 08:03:17;;;;;;;5.00;1.73;;;;;;;23.88;49.74;102168.38;5090945;28;20028;-87
2022/08/28 08:05:51;;;;;;;6.25;2.17;;;;;;;23.86;49.56;102165.94;5090942;28;20029;-83
2022/08/28 08:08:17;;;;;;;4.03;1.42;;;;;;;23.86;49.60;102171.53;5074173;28;20033;-82
2022/08/28 08:10:43;;;;;;;3.30;2.00;;;;;;;23.94;49.90;102169.69;5075229;28;20020;-83
2022/08/28 08:13:08;;;;;;;5.40;1.92;;;;;;;24.00;49.77;102171.00;5075150;28;20506;-82
2022/08/28 08:15:34;;;;;;;3.97;1.67;;;;;;;24.02;49.66;102177.00;5089971;28;20035;-83
2022/08/28 08:17:59;;;;;;;5.10;1.88;;;;;;;24.08;49.83;102172.75;5073874;28;20032;-83
2022/08/28 08:20:25;;;;;;;5.05;1.73;;;;;;;24.08;50.09;102178.31;5073834;28;20028;-84
2022/08/28 08:22:51;;;;;;;3.45;1.50;;;;;;;24.17;49.64;102181.69;5091004;28;20562;-83
2022/08/28 08:25:17;;;;;;;3.80;2.08;;;;;;;24.18;49.93;102185.28;5090581;28;20017;-82
2022/08/28 08:27:42;;;;;;;5.25;1.63;;;;;;;24.25;49.72;102183.41;5075214;28;20367;-83
2022/08/28 08:30:09;;;;;;;10.43;2.25;;;;;;;24.30;49.62;102185.91;5074743;28;20021;-83
2022/08/28 08:32:38;;;;;;;3.60;1.60;;;;;;;24.33;49.80;102187.16;5074858;28;20017;-83
2022/08/28 08:35:03;;;;;;;2.53;2.10;;;;;;;24.30;49.59;102188.69;5073580;28;20024;-83
2022/08/28 08:37:29;;;;;;;4.15;1.67;;;;;;;24.46;49.43;102188.59;5090312;28;20048;-83
2022/08/28 08:39:54;;;;;;;3.05;1.40;;;;;;;24.45;49.37;102181.41;5073648;28;20028;-82
2022/08/28 08:42:24;;;;;;;6.80;2.08;;;;;;;24.43;49.31;102172.59;5073421;28;20032;-82
2022/08/28 08:44:52;;;;;;;4.43;2.17;;;;;;;24.46;49.39;102177.44;5073376;28;20048;-82
2022/08/28 08:47:27;;;;;;;5.07;1.70;;;;;;;24.44;49.56;102179.00;5073719;28;20090;-83
2022/08/28 08:50:01;;;;;;;3.70;1.50;;;;;;;24.48;49.75;102191.00;5073411;28;20074;-83
2022/08/28 08:52:33;;;;;;;6.32;1.70;;;;;;;24.33;49.92;102185.22;5073591;28;20025;-84
2022/08/28 08:55:02;;;;;;;5.32;2.03;;;;;;;24.44;49.89;102190.16;5090234;28;20124;-83
2022/08/28 08:57:30;;;;;;;5.03;2.20;;;;;;;24.56;49.54;102189.94;5073062;28;20483;-83
2022/08/28 08:59:56;;;;;;;4.65;1.67;;;;;;;24.61;49.21;102184.88;5089968;28;20670;-83
2022/08/28 09:02:28;;;;;;;6.00;1.98;;;;;;;24.63;49.14;102188.09;5074178;28;20028;-83
2022/08/28 09:05:03;;;;;;;5.43;2.33;;;;;;;24.65;49.51;102192.50;5074581;28;20047;-83
2022/08/28 09:07:40;;;;;;;3.42;2.67;;;;;;;24.56;49.49;102182.41;5073031;28;20123;-82
2022/08/28 09:10:13;;;;;;;3.60;1.80;;;;;;;24.62;49.04;102189.25;5074501;28;20158;-83
2022/08/28 09:13:05;;;;;;;3.90;2.15;;;;;;;24.59;49.53;102186.44;5089782;28;20024;-82
2022/08/28 09:15:35;;;;;;;5.72;1.88;;;;;;;24.52;49.57;102169.53;5073989;28;20036;-82
2022/08/28 09:18:26;;;;;;;6.20;2.58;;;;;;;24.56;49.11;102188.00;5073133;28;20028;-83
2022/08/28 09:20:57;;;;;;;7.72;2.25;;;;;;;24.58;49.47;102193.19;5089624;28;20090;-83
2022/08/28 09:23:25;;;;;;;3.88;2.00;;;;;;;24.70;48.67;102192.19;5073951;28;20035;-83
2022/08/28 09:25:53;;;;;;;3.10;2.00;;;;;;;24.70;49.16;102195.78;5074172;28;20028;-82
2022/08/28 09:28:21;;;;;;;3.88;1.75;;;;;;;24.67;49.19;102196.53;5089550;28;20025;-82
2022/08/28 09:31:16;;;;;;;3.05;1.52;;;;;;;24.62;49.30;102194.84;5089693;28;20055;-82
2022/08/28 09:33:44;;;;;;;5.63;1.95;;;;;;;24.65;49.15;102193.31;5072268;28;20483;-83
2022/08/28 09:36:32;;;;;;;4.75;2.13;;;;;;;24.63;49.43;102196.47;5072635;28;20029;-83
2022/08/28 09:39:16;;;;;;;4.07;1.73;;;;;;;24.65;49.46;102189.72;5089223;28;20104;-82
2022/08/28 09:44:33;;;;;;;3.72;1.70;;;;;;;24.79;49.46;102196.34;5073536;28;20036;-82
2022/08/28 09:46:58;;;;;;;4.18;1.90;;;;;;;24.84;48.96;102189.59;5072340;28;20029;-83
2022/08/28 09:49:28;;;;;;;3.60;1.85;;;;;;;24.82;49.47;102187.19;5089237;28;20024;-82
2022/08/28 09:51:55;;;;;;;3.30;2.08;;;;;;;24.92;49.33;102197.72;5072490;28;20052;-82
2022/08/28 09:54:38;;;;;;;4.47;2.08;;;;;;;24.88;49.27;102191.28;5073396;28;20035;-82
2022/08/28 09:57:04;;;;;;;6.93;1.88;;;;;;;24.91;49.44;102198.91;5072133;28;20035;-83
2022/08/28 09:59:30;;;;;;;5.07;2.35;;;;;;;24.90;49.86;102202.09;5089192;28;20378;-83
2022/08/28 10:01:56;;;;;;;4.78;2.33;;;;;;;25.07;49.38;102203.56;5073299;28;20103;-83
2022/08/28 10:04:32;;;;;;;6.93;2.50;;;;;;;25.08;49.07;102205.97;5088925;28;20063;-83
2022/08/28 10:07:40;;;;;;;2.83;1.95;;;;;;;25.05;49.85;102205.94;5071936;28;20028;-82
2022/08/28 10:10:34;;;;;;;4.60;1.63;;;;;;;25.03;49.19;102206.31;5072194;28;20450;-83
2022/08/28 10:13:22;;;;;;;5.15;2.13;;;;;;;25.08;49.25;102203.19;5072734;28;20382;-83
2022/08/28 10:16:10;;;;;;;5.00;1.88;;;;;;;25.20;48.66;102207.75;5072951;28;20020;-83
2022/08/28 10:18:46;;;;;;;3.85;2.20;;;;;;;25.11;48.89;102199.66;5088529;28;20028;-83
2022/08/28 10:21:28;;;;;;;3.03;2.05;;;;;;;25.24;48.88;102202.19;5088766;28;20067;-83
2022/08/28 10:24:36;;;;;;;6.53;2.38;;;;;;;25.13;48.92;102210.44;5088806;28;20050;-83
2022/08/28 10:27:04;;;;;;;5.70;2.20;;;;;;;25.20;48.90;102206.94;5060689;28;20043;-83
2022/08/28 10:29:57;;;;;;;5.00;1.83;;;;;;;25.29;48.57;102216.66;5088519;28;20021;-82
2022/08/28 10:32:41;;;;;;;4.68;2.03;;;;;;;25.35;48.62;102211.56;5072978;28;20033;-82
2022/08/28 10:35:20;;;;;;;6.05;2.08;;;;;;;25.31;49.08;102219.88;5072786;28;20024;-83
2022/08/28 10:38:18;;;;;;;5.05;1.73;;;;;;;25.41;48.31;102222.03;5088907;28;20051;-83
2022/08/28 10:40:53;;;;;;;4.45;2.00;;;;;;;25.43;48.54;102221.66;5071276;28;20020;-83
2022/08/28 10:43:28;;;;;;;3.70;2.05;;;;;;;25.47;48.34;102219.72;5088566;28;20544;-83
2022/08/28 10:45:58;;;;;;;6.05;2.38;;;;;;;25.43;47.98;102227.25;5071438;28;20479;-83
2022/08/28 10:48:30;;;;;;;3.38;2.13;;;;;;;25.46;48.09;102227.28;5071615;28;20124;-83
2022/08/28 10:51:05;;;;;;;5.75;2.00;;;;;;;25.43;48.34;102228.06;5072803;28;20052;-83
2022/08/28 10:53:40;;;;;;;7.22;2.85;;;;;;;25.51;48.06;102233.75;5088296;28;20031;-83
2022/08/28 10:56:16;;;;;;;5.90;2.50;;;;;;;25.37;48.51;102234.34;5072593;28;20025;-83
2022/08/28 10:58:44;;;;;;;9.43;2.25;;;;;;;25.37;48.24;102234.34;5071488;28;20059;-81
2022/08/28 11:01:22;;;;;;;8.75;3.22;;;;;;;25.40;48.29;102234.41;5073048;28;20494;-83
2022/08/28 11:03:50;;;;;;;4.20;2.13;;;;;;;25.48;47.68;102231.72;5072775;28;20033;-83
2022/08/28 11:06:25;;;;;;;2.70;2.15;;;;;;;25.43;48.04;102238.44;5072881;28;20039;-83
2022/08/28 11:08:55;;;;;;;4.53;2.30;;;;;;;25.40;48.35;102245.63;5072521;28;20028;-83
2022/08/28 11:11:57;;;;;;;9.85;3.38;;;;;;;25.53;48.40;102242.56;5071336;28;20035;-83
2022/08/28 11:14:25;;;;;;;4.55;2.47;;;;;;;25.68;47.85;102245.16;5033209;28;20049;-83
2022/08/28 11:16:55;;;;;;;4.63;2.47;;;;;;;25.74;47.77;102240.06;5063756;28;20062;-83
2022/08/28 11:19:58;;;;;;;3.38;2.20;;;;;;;25.59;48.76;102246.66;5071469;28;20028;-84
2022/08/28 11:22:51;;;;;;;7.47;3.15;;;;;;;25.73;48.25;102246.88;5072513;28;20021;-82
2022/08/28 11:25:44;;;;;;;5.15;3.20;;;;;;;25.58;48.77;102245.03;5071279;28;20115;-84
2022/08/28 11:28:17;;;;;;;5.47;2.90;;;;;;;25.56;49.43;102255.81;5071071;28;20028;-83
2022/08/28 11:31:10;;;;;;;5.53;2.70;;;;;;;25.55;49.21;102249.41;5070936;28;20025;-83
2022/08/28 11:33:35;;;;;;;6.80;3.55;;;;;;;25.61;48.90;102247.06;5075502;28;20028;-83
2022/08/28 11:36:03;;;;;;;3.72;2.38;;;;;;;25.62;49.23;102249.50;5087526;28;20043;-83
2022/08/28 11:38:40;;;;;;;6.13;2.78;;;;;;;25.52;50.05;102246.56;5071109;28;20029;-83